createdAt,value
2019-05-16T00:00:34.321Z,15.70
2019-05-16T00:03:02.504Z,15.80
2019-05-16T00:05:30.674Z,15.70
2019-05-16T00:08:00.227Z,15.80
2019-05-16T00:10:28.391Z,15.90
2019-05-16T00:12:59.219Z,15.90
2019-05-16T00:15:28.686Z,15.90
2019-05-16T00:17:58.373Z,15.90
2019-05-16T00:20:28.420Z,15.90
2019-05-16T00:22:58.902Z,15.80
2019-05-16T00:25:28.591Z,15.80
2019-05-16T00:28:17.875Z,15.80
2019-05-16T00:30:48.501Z,15.80
2019-05-16T00:33:15.702Z,15.70
2019-05-16T00:35:43.931Z,15.70
2019-05-16T00:38:12.070Z,15.70
2019-05-16T00:40:40.339Z,15.70
2019-05-16T00:43:08.559Z,15.70
2019-05-16T00:45:38.462Z,15.70
2019-05-16T00:48:08.796Z,15.70
2019-05-16T00:50:38.742Z,15.70
2019-05-16T00:53:09.115Z,15.70
2019-05-16T00:55:38.979Z,15.60
2019-05-16T00:58:08.812Z,15.60
2019-05-16T01:00:45.624Z,15.70
2019-05-16T01:03:14.102Z,15.70
2019-05-16T01:05:42.330Z,15.60
2019-05-16T01:08:10.710Z,15.60
2019-05-16T01:10:39.121Z,15.60
2019-05-16T01:13:07.981Z,15.60
2019-05-16T01:15:37.989Z,15.60
2019-05-16T01:18:08.114Z,15.70
2019-05-16T01:20:38.454Z,15.70
2019-05-16T01:23:08.732Z,15.70
2019-05-16T01:25:38.767Z,15.70
2019-05-16T01:28:08.864Z,15.80
2019-05-16T01:30:38.114Z,15.80
2019-05-16T01:33:08.824Z,15.80
2019-05-16T01:35:38.526Z,15.70
2019-05-16T01:38:08.694Z,15.70
2019-05-16T01:40:38.795Z,15.70
2019-05-16T01:43:08.581Z,15.60
2019-05-16T01:45:38.491Z,15.70
2019-05-16T01:48:08.275Z,15.60
2019-05-16T01:50:38.593Z,15.60
2019-05-16T01:53:08.597Z,15.60
2019-05-16T01:55:38.087Z,15.50
2019-05-16T01:58:08.090Z,15.30
2019-05-16T02:00:48.052Z,15.50
2019-05-16T02:03:08.253Z,15.60
2019-05-16T02:05:38.573Z,15.50
2019-05-16T02:08:08.962Z,15.50
2019-05-16T02:10:37.911Z,15.60
2019-05-16T02:13:08.343Z,15.40
2019-05-16T02:15:38.127Z,15.30
2019-05-16T02:18:08.209Z,15.10
2019-05-16T02:20:39.033Z,15.10
2019-05-16T02:23:08.020Z,15.10
2019-05-16T02:25:38.148Z,15.20
2019-05-16T02:28:06.441Z,15.30
2019-05-16T02:30:34.819Z,15.30
2019-05-16T02:33:04.923Z,15.20
2019-05-16T02:35:33.134Z,15.20
2019-05-16T02:38:01.403Z,15.30
2019-05-16T02:40:31.335Z,15.30
2019-05-16T02:43:01.824Z,15.20
2019-05-16T02:45:32.395Z,15.30
2019-05-16T02:48:01.213Z,15.30
2019-05-16T02:50:31.536Z,15.30
2019-05-16T02:53:01.433Z,15.30
2019-05-16T02:55:30.785Z,15.40
2019-05-16T02:58:00.757Z,15.30
2019-05-16T03:00:36.983Z,15.40
2019-05-16T03:03:05.829Z,15.40
2019-05-16T03:05:34.303Z,15.30
2019-05-16T03:08:03.750Z,15.30
2019-05-16T03:10:32.122Z,15.30
2019-05-16T03:13:01.102Z,15.40
2019-05-16T03:15:30.975Z,15.50
2019-05-16T03:18:03.909Z,15.50
2019-05-16T03:20:32.862Z,15.50
2019-05-16T03:23:02.309Z,15.50
2019-05-16T03:25:31.116Z,15.60
2019-05-16T03:28:02.061Z,15.60
2019-05-16T03:30:34.842Z,15.60
2019-05-16T03:33:05.081Z,15.60
2019-05-16T03:35:33.929Z,15.60
2019-05-16T03:38:05.090Z,15.70
2019-05-16T03:40:34.095Z,15.70
2019-05-16T03:43:02.736Z,15.70
2019-05-16T03:45:32.195Z,15.60
2019-05-16T03:48:02.900Z,15.70
2019-05-16T03:50:31.041Z,15.60
2019-05-16T03:53:01.565Z,15.70
2019-05-16T03:55:32.459Z,15.80
2019-05-16T03:58:01.144Z,15.80
2019-05-16T04:00:52.460Z,15.80
2019-05-16T04:03:21.268Z,15.90
2019-05-16T04:05:52.461Z,15.90
2019-05-16T04:08:24.562Z,16.00
2019-05-16T04:10:52.217Z,16.00
2019-05-16T04:13:21.377Z,16.10
2019-05-16T04:15:52.389Z,16.10
2019-05-16T04:18:22.052Z,16.10
2019-05-16T04:20:52.407Z,16.20
2019-05-16T04:23:20.778Z,16.20
2019-05-16T04:25:52.445Z,16.40
2019-05-16T04:28:21.750Z,16.40
2019-05-16T04:30:50.778Z,16.50
2019-05-16T04:33:22.087Z,16.50
2019-05-16T04:35:52.392Z,16.50
2019-05-16T04:38:31.551Z,16.60
2019-05-16T04:40:51.673Z,16.60
2019-05-16T04:43:22.198Z,16.70
2019-05-16T04:45:52.193Z,16.70
2019-05-16T04:48:22.197Z,16.70
2019-05-16T04:50:51.590Z,16.70
2019-05-16T04:53:20.821Z,16.70
2019-05-16T04:55:51.554Z,16.90
2019-05-16T04:58:23.171Z,16.90
2019-05-16T05:00:51.771Z,16.90
2019-05-16T05:03:21.404Z,16.90
2019-05-16T05:05:51.308Z,16.90
2019-05-16T05:08:21.873Z,16.90
2019-05-16T05:10:51.397Z,16.90
2019-05-16T05:13:22.202Z,16.70
2019-05-16T05:15:50.890Z,16.80
2019-05-16T05:18:21.227Z,16.70
2019-05-16T05:20:52.134Z,16.70
2019-05-16T05:23:20.895Z,16.50
2019-05-16T05:25:51.555Z,16.50
2019-05-16T05:28:20.961Z,16.60
2019-05-16T05:30:50.335Z,16.60
2019-05-16T05:33:21.160Z,16.60
2019-05-16T05:35:50.790Z,16.60
2019-05-16T05:38:21.168Z,16.60
2019-05-16T05:40:51.095Z,16.50
2019-05-16T05:43:21.137Z,16.40
2019-05-16T05:45:51.060Z,16.60
2019-05-16T05:48:21.171Z,16.50
2019-05-16T05:50:50.864Z,16.60
2019-05-16T05:53:20.822Z,16.70
2019-05-16T05:55:50.983Z,15.90
2019-05-16T05:58:20.572Z,15.90
2019-05-16T06:00:51.805Z,15.80
2019-05-16T06:03:39.910Z,16.30
2019-05-16T06:06:10.312Z,16.60
2019-05-16T06:08:38.005Z,16.90
2019-05-16T06:11:06.269Z,17.00
2019-05-16T06:13:34.492Z,17.30
2019-05-16T06:16:02.698Z,17.40
2019-05-16T06:18:30.817Z,17.30
2019-05-16T06:21:00.502Z,17.50
2019-05-16T06:23:31.184Z,17.70
2019-05-16T06:26:00.400Z,17.80
2019-05-16T06:28:30.816Z,17.90
2019-05-16T06:31:01.878Z,18.00
2019-05-16T06:33:30.550Z,18.00
2019-05-16T06:36:00.325Z,17.80
2019-05-16T06:38:29.879Z,18.00
2019-05-16T06:41:00.457Z,18.20
2019-05-16T06:43:30.153Z,18.30
2019-05-16T06:46:00.644Z,18.20
2019-05-16T06:48:30.426Z,18.30
2019-05-16T06:51:02.566Z,18.20
2019-05-16T06:53:29.951Z,18.10
2019-05-16T06:56:00.167Z,18.10
2019-05-16T06:58:30.272Z,17.70
2019-05-16T07:01:00.440Z,17.50
2019-05-16T07:03:30.650Z,17.50
2019-05-16T07:06:00.507Z,17.70
2019-05-16T07:08:30.986Z,17.80
2019-05-16T07:10:59.985Z,17.90
2019-05-16T07:13:30.387Z,17.90
2019-05-16T07:16:00.600Z,18.00
2019-05-16T07:18:30.747Z,18.00
2019-05-16T07:21:00.208Z,17.90
2019-05-16T07:23:29.840Z,18.00
2019-05-16T07:26:00.590Z,18.10
2019-05-16T07:28:30.086Z,18.30
2019-05-16T07:31:00.488Z,18.10
2019-05-16T07:33:28.096Z,18.00
2019-05-16T07:35:56.406Z,18.00
2019-05-16T07:38:24.658Z,18.10
2019-05-16T07:40:52.931Z,18.10
2019-05-16T07:43:21.259Z,18.10
2019-05-16T07:45:51.415Z,18.10
2019-05-16T07:48:21.610Z,18.00
2019-05-16T07:50:50.283Z,17.90
2019-05-16T07:53:21.137Z,18.00
2019-05-16T07:56:10.467Z,18.00
2019-05-16T07:58:38.107Z,18.00
2019-05-16T08:01:09.129Z,17.80
2019-05-16T08:03:36.393Z,18.00
2019-05-16T08:06:04.667Z,18.00
2019-05-16T08:08:33.021Z,18.00
2019-05-16T08:11:01.743Z,17.80
2019-05-16T08:13:30.790Z,17.80
2019-05-16T08:16:01.127Z,18.00
2019-05-16T08:18:30.213Z,18.10
2019-05-16T08:21:01.029Z,18.30
2019-05-16T08:23:30.514Z,18.40
2019-05-16T08:26:01.135Z,18.50
2019-05-16T08:28:30.817Z,18.80
2019-05-16T08:31:00.879Z,19.30
2019-05-16T08:33:31.972Z,19.40
2019-05-16T08:36:02.937Z,19.20
2019-05-16T08:38:30.892Z,19.40
2019-05-16T08:41:07.931Z,19.00
2019-05-16T08:43:31.707Z,18.80
2019-05-16T08:46:01.033Z,18.70
2019-05-16T08:48:31.910Z,18.70
2019-05-16T08:51:02.846Z,18.80
2019-05-16T08:53:31.632Z,18.70
2019-05-16T08:56:02.577Z,18.60
2019-05-16T08:58:33.028Z,18.60
2019-05-16T09:01:02.254Z,18.70
2019-05-16T09:03:32.367Z,18.80
2019-05-16T09:06:02.860Z,18.80
2019-05-16T09:08:49.167Z,18.70
2019-05-16T09:11:31.380Z,18.80
2019-05-16T09:13:47.817Z,18.60
2019-05-16T09:16:18.295Z,18.40
2019-05-16T09:18:46.627Z,18.40
2019-05-16T09:21:17.977Z,18.60
2019-05-16T09:23:46.998Z,18.60
2019-05-16T09:26:18.751Z,18.40
2019-05-16T09:28:48.238Z,18.30
2019-05-16T09:31:17.902Z,18.50
2019-05-16T09:33:47.385Z,18.30
2019-05-16T09:36:17.485Z,18.20
2019-05-16T09:38:48.134Z,18.50
2019-05-16T09:41:16.898Z,18.40
2019-05-16T09:43:48.651Z,18.50
2019-05-16T09:46:17.195Z,18.20
2019-05-16T09:48:47.717Z,18.20
2019-05-16T09:51:17.268Z,18.30
2019-05-16T09:53:47.164Z,18.10
2019-05-16T09:56:16.774Z,18.00
2019-05-16T09:58:46.715Z,18.00
2019-05-16T10:01:17.385Z,18.10
2019-05-16T10:03:47.711Z,18.20
2019-05-16T10:06:19.147Z,18.10
2019-05-16T10:08:46.441Z,18.30
2019-05-16T10:11:17.857Z,18.00
2019-05-16T10:13:46.936Z,17.90
2019-05-16T10:16:16.710Z,17.70
2019-05-16T10:18:47.369Z,17.50
2019-05-16T10:21:19.652Z,17.50
2019-05-16T10:23:46.811Z,17.70
2019-05-16T10:26:17.151Z,17.60
2019-05-16T10:28:46.834Z,17.60
2019-05-16T10:31:17.604Z,17.80
2019-05-16T10:33:47.821Z,18.10
2019-05-16T10:36:17.344Z,18.30
2019-05-16T10:38:48.156Z,18.20
2019-05-16T10:41:15.296Z,18.40
2019-05-16T10:43:43.490Z,18.50
2019-05-16T10:46:11.895Z,18.70
2019-05-16T10:48:40.930Z,18.70
2019-05-16T10:51:09.116Z,18.60
2019-05-16T10:54:00.451Z,18.10
2019-05-16T10:56:07.879Z,17.90
2019-05-16T10:58:47.156Z,18.10
2019-05-16T11:01:19.503Z,18.50
2019-05-16T11:03:36.349Z,18.60
2019-05-16T11:06:08.350Z,18.60
2019-05-16T11:08:37.189Z,18.50
2019-05-16T11:11:06.703Z,18.60
2019-05-16T11:13:47.208Z,18.50
2019-05-16T11:16:17.422Z,18.40
2019-05-16T11:18:45.748Z,18.10
2019-05-16T11:21:13.956Z,18.20
2019-05-16T11:23:42.194Z,18.20
2019-05-16T11:26:10.279Z,18.10
2019-05-16T11:28:38.613Z,18.20
2019-05-16T11:31:07.737Z,18.30
2019-05-16T11:33:37.052Z,18.30
2019-05-16T11:36:08.093Z,18.20
2019-05-16T11:38:37.753Z,18.30
2019-05-16T11:41:07.406Z,18.10
2019-05-16T11:43:36.711Z,18.30
2019-05-16T11:46:05.050Z,18.20
2019-05-16T11:48:33.248Z,18.20
2019-05-16T11:51:01.537Z,18.30
2019-05-16T11:53:29.813Z,18.20
2019-05-16T11:56:01.551Z,18.20
2019-05-16T11:58:28.062Z,18.10
2019-05-16T12:00:57.499Z,18.10
2019-05-16T12:03:28.100Z,18.00
2019-05-16T12:05:58.001Z,17.90
2019-05-16T12:08:26.475Z,17.70
2019-05-16T12:10:54.792Z,17.50
2019-05-16T12:13:31.631Z,17.40
2019-05-16T12:15:53.201Z,16.80
2019-05-16T12:18:21.402Z,16.80
2019-05-16T12:20:49.769Z,16.80
2019-05-16T12:23:17.807Z,17.20
2019-05-16T12:25:47.519Z,17.40
2019-05-16T12:28:16.865Z,17.50
2019-05-16T12:30:47.214Z,17.60
2019-05-16T12:33:18.405Z,17.30
2019-05-16T12:35:47.471Z,17.30
2019-05-16T12:38:17.074Z,16.90
2019-05-16T12:40:47.819Z,16.70
2019-05-16T12:43:17.782Z,16.50
2019-05-16T12:45:47.256Z,16.80
2019-05-16T12:48:19.909Z,16.70
2019-05-16T12:50:48.118Z,16.70
2019-05-16T12:53:16.182Z,17.00
2019-05-16T12:55:44.545Z,17.20
2019-05-16T12:58:13.699Z,17.00
2019-05-16T13:00:44.137Z,17.10
2019-05-16T13:03:12.355Z,17.10
2019-05-16T13:05:40.554Z,17.10
2019-05-16T13:08:08.992Z,17.20
2019-05-16T13:10:38.045Z,17.00
2019-05-16T13:13:07.773Z,16.70
2019-05-16T13:15:38.217Z,16.60
2019-05-16T13:18:07.984Z,16.60
2019-05-16T13:20:39.295Z,16.50
2019-05-16T13:23:14.224Z,16.50
2019-05-16T13:25:36.937Z,16.60
2019-05-16T13:28:07.873Z,16.50
2019-05-16T13:30:37.701Z,16.50
2019-05-16T13:33:07.330Z,16.40
2019-05-16T13:35:37.056Z,16.30
2019-05-16T13:38:07.976Z,16.40
2019-05-16T13:40:35.515Z,16.60
2019-05-16T13:43:03.837Z,16.70
2019-05-16T13:45:31.961Z,16.70
2019-05-16T13:48:00.144Z,16.80
2019-05-16T13:50:28.264Z,16.90
2019-05-16T13:52:58.313Z,16.90
2019-05-16T13:55:27.165Z,17.00
2019-05-16T13:57:55.560Z,16.80
2019-05-16T14:00:24.075Z,16.90
2019-05-16T14:02:52.271Z,17.00
2019-05-16T14:05:21.539Z,16.80
2019-05-16T14:07:49.829Z,17.00
2019-05-16T14:10:18.626Z,17.10
2019-05-16T14:12:50.104Z,17.10
2019-05-16T14:15:18.174Z,17.10
2019-05-16T14:17:48.904Z,16.90
2019-05-16T14:20:18.181Z,16.70
2019-05-16T14:22:46.698Z,16.40
2019-05-16T14:25:15.241Z,16.50
2019-05-16T14:27:43.278Z,16.40
2019-05-16T14:30:12.842Z,16.20
2019-05-16T14:32:43.685Z,16.10
2019-05-16T14:35:11.085Z,15.90
2019-05-16T14:37:39.285Z,16.20
2019-05-16T14:40:08.055Z,16.40
2019-05-16T14:42:38.728Z,16.50
2019-05-16T14:45:12.022Z,16.70
2019-05-16T14:47:37.930Z,16.70
2019-05-16T14:50:13.593Z,16.80
2019-05-16T14:52:36.797Z,16.90
2019-05-16T14:55:07.302Z,16.70
2019-05-16T14:57:36.875Z,16.70
2019-05-16T15:00:07.372Z,16.60
2019-05-16T15:02:38.223Z,16.70
2019-05-16T15:05:07.969Z,16.70
2019-05-16T15:07:37.610Z,16.50
2019-05-16T15:10:07.364Z,16.60
2019-05-16T15:12:37.513Z,16.60
2019-05-16T15:15:21.202Z,16.70
2019-05-16T15:17:41.861Z,16.60
2019-05-16T15:20:10.590Z,16.60
2019-05-16T15:22:38.786Z,16.50
2019-05-16T15:25:08.122Z,16.60
2019-05-16T15:27:37.178Z,16.80
2019-05-16T15:30:07.002Z,16.80
2019-05-16T15:32:38.444Z,16.80
2019-05-16T15:35:07.434Z,17.00
2019-05-16T15:37:37.303Z,16.70
2019-05-16T15:40:07.261Z,16.60
2019-05-16T15:42:37.218Z,16.70
2019-05-16T15:45:06.964Z,17.00
2019-05-16T15:47:37.485Z,16.80
2019-05-16T15:50:07.889Z,16.90
2019-05-16T15:52:38.150Z,16.80
2019-05-16T15:55:10.218Z,16.60
2019-05-16T15:57:39.021Z,16.50
2019-05-16T16:00:10.735Z,16.40
2019-05-16T16:02:38.321Z,16.70
2019-05-16T16:05:07.385Z,16.90
2019-05-16T16:07:38.569Z,17.00
2019-05-16T16:10:07.340Z,17.10
2019-05-16T16:12:37.543Z,17.30
2019-05-16T16:15:07.612Z,17.40
2019-05-16T16:17:38.098Z,17.40
2019-05-16T16:20:10.494Z,17.50
2019-05-16T16:22:37.769Z,17.60
2019-05-16T16:25:06.803Z,17.60
2019-05-16T16:27:35.263Z,17.50
2019-05-16T16:30:06.862Z,17.50
2019-05-16T16:32:37.608Z,17.50
2019-05-16T16:35:07.929Z,17.60
2019-05-16T16:37:37.778Z,17.60
2019-05-16T16:40:10.890Z,17.70
2019-05-16T16:42:37.496Z,17.70
2019-05-16T16:45:07.268Z,17.70
2019-05-16T16:47:37.727Z,17.70
2019-05-16T16:50:07.662Z,17.70
2019-05-16T16:52:37.827Z,17.80
2019-05-16T16:55:07.821Z,17.80
2019-05-16T16:57:38.288Z,17.90
2019-05-16T17:00:07.752Z,17.90
2019-05-16T17:02:37.327Z,17.70
2019-05-16T17:05:12.010Z,17.40
2019-05-16T17:07:37.448Z,17.20
2019-05-16T17:10:08.011Z,17.10
2019-05-16T17:12:41.683Z,17.40
2019-05-16T17:15:08.442Z,17.40
2019-05-16T17:17:37.574Z,17.40
2019-05-16T17:20:07.802Z,17.50
2019-05-16T17:22:37.515Z,17.60
2019-05-16T17:25:12.399Z,17.50
2019-05-16T17:27:40.715Z,17.50
2019-05-16T17:30:16.815Z,17.40
2019-05-16T17:32:44.627Z,17.40
2019-05-16T17:35:13.603Z,17.20
2019-05-16T17:37:41.820Z,17.00
2019-05-16T17:40:10.770Z,17.10
2019-05-16T17:42:58.059Z,17.10
2019-05-16T17:45:26.699Z,17.10
2019-05-16T17:47:57.083Z,17.30
2019-05-16T17:50:26.333Z,17.30
2019-05-16T17:52:54.577Z,17.20
2019-05-16T17:55:22.855Z,17.10
2019-05-16T17:57:51.067Z,17.00
2019-05-16T18:00:25.094Z,17.00
2019-05-16T18:02:50.323Z,17.00
2019-05-16T18:05:18.766Z,17.00
2019-05-16T18:07:47.575Z,17.00
2019-05-16T18:10:17.131Z,17.00
2019-05-16T18:12:47.695Z,17.00
2019-05-16T18:15:19.707Z,17.00
2019-05-16T18:17:48.025Z,16.90
2019-05-16T18:20:16.794Z,16.80
2019-05-16T18:22:47.186Z,16.80
2019-05-16T18:25:16.432Z,16.80
2019-05-16T18:27:44.885Z,16.80
2019-05-16T18:30:16.722Z,16.70
2019-05-16T18:32:44.651Z,16.70
2019-05-16T18:35:13.184Z,16.70
2019-05-16T18:37:41.246Z,16.30
2019-05-16T18:40:10.103Z,16.40
2019-05-16T18:42:38.341Z,16.60
2019-05-16T18:45:07.403Z,16.60
2019-05-16T18:47:37.845Z,16.60
2019-05-16T18:50:07.563Z,16.60
2019-05-16T18:52:37.532Z,16.50
2019-05-16T18:55:08.427Z,16.50
2019-05-16T18:57:37.750Z,16.50
2019-05-16T19:00:10.905Z,16.60
2019-05-16T19:02:39.402Z,16.60
2019-05-16T19:05:08.261Z,16.50
2019-05-16T19:07:37.102Z,16.50
2019-05-16T19:10:06.837Z,16.50
2019-05-16T19:12:37.166Z,16.50
2019-05-16T19:15:07.131Z,16.40
2019-05-16T19:17:35.722Z,16.40
2019-05-16T19:20:06.454Z,16.40
2019-05-16T19:22:36.945Z,16.50
2019-05-16T19:25:06.945Z,16.40
2019-05-16T19:27:37.086Z,16.50
2019-05-16T19:30:06.302Z,16.50
2019-05-16T19:32:34.371Z,16.40
2019-05-16T19:35:02.653Z,16.40
2019-05-16T19:37:31.648Z,16.40
2019-05-16T19:39:59.910Z,16.40
2019-05-16T19:42:29.801Z,16.40
2019-05-16T19:44:59.200Z,16.30
2019-05-16T19:47:35.052Z,16.30
2019-05-16T19:49:57.146Z,16.20
2019-05-16T19:52:27.011Z,16.30
2019-05-16T19:54:56.452Z,16.30
2019-05-16T19:57:26.608Z,16.40
2019-05-16T19:59:56.584Z,16.40
2019-05-16T20:02:27.179Z,16.30
2019-05-16T20:04:56.243Z,16.40
2019-05-16T20:07:26.397Z,16.40
2019-05-16T20:09:54.711Z,16.40
2019-05-16T20:12:22.983Z,16.30
2019-05-16T20:15:03.581Z,16.40
2019-05-16T20:17:21.244Z,16.40
2019-05-16T20:19:49.657Z,16.40
2019-05-16T20:22:17.962Z,16.20
2019-05-16T20:24:46.843Z,16.30
2019-05-16T20:27:16.989Z,16.10
2019-05-16T20:29:47.320Z,16.10
2019-05-16T20:32:16.893Z,16.10
2019-05-16T20:34:46.819Z,16.20
2019-05-16T20:37:17.461Z,16.20
2019-05-16T20:40:00.407Z,16.20
2019-05-16T20:42:31.684Z,16.30
2019-05-16T20:44:59.955Z,16.30
2019-05-16T20:47:28.237Z,16.20
2019-05-16T20:49:57.051Z,16.30
2019-05-16T20:52:26.906Z,16.20
2019-05-16T20:54:57.644Z,16.20
2019-05-16T20:57:26.548Z,16.20
2019-05-16T20:59:54.634Z,16.20
2019-05-16T21:02:23.016Z,16.20
2019-05-16T21:04:51.397Z,16.10
2019-05-16T21:07:19.832Z,16.10
2019-05-16T21:09:48.094Z,16.10
2019-05-16T21:12:17.262Z,16.10
2019-05-16T21:14:45.787Z,16.10
2019-05-16T21:17:14.098Z,16.10
2019-05-16T21:19:42.374Z,16.10
2019-05-16T21:22:10.821Z,16.00
2019-05-16T21:24:39.300Z,16.10
2019-05-16T21:27:07.635Z,16.10
2019-05-16T21:29:36.898Z,16.10
2019-05-16T21:32:07.226Z,16.10
2019-05-16T21:34:36.570Z,16.10
2019-05-16T21:37:14.583Z,16.10
2019-05-16T21:39:37.808Z,16.10
2019-05-16T21:42:07.437Z,16.00
2019-05-16T21:44:37.353Z,16.00
2019-05-16T21:47:06.065Z,16.00
2019-05-16T21:49:36.600Z,16.00
2019-05-16T21:52:04.358Z,15.90
2019-05-16T21:54:32.433Z,15.90
2019-05-16T21:57:00.677Z,15.90
2019-05-16T21:59:28.962Z,15.80
2019-05-16T22:01:57.579Z,15.90
2019-05-16T22:04:25.850Z,15.80
2019-05-16T22:06:53.999Z,15.80
2019-05-16T22:09:22.311Z,15.80
2019-05-16T22:11:50.547Z,15.80
2019-05-16T22:14:23.580Z,15.70
2019-05-16T22:16:51.927Z,15.60
2019-05-16T22:19:20.177Z,15.60
2019-05-16T22:21:48.399Z,15.60
2019-05-16T22:24:17.231Z,15.60
2019-05-16T22:26:46.661Z,15.60
2019-05-16T22:29:16.932Z,15.60
2019-05-16T22:31:47.126Z,15.50
2019-05-16T22:34:16.956Z,15.50
2019-05-16T22:36:46.255Z,15.50
2019-05-16T22:39:17.193Z,15.40
2019-05-16T22:41:46.587Z,15.40
2019-05-16T22:44:17.414Z,15.30
2019-05-16T22:46:46.480Z,15.30
2019-05-16T22:49:16.839Z,15.20
2019-05-16T22:51:44.993Z,15.10
2019-05-16T22:54:13.356Z,15.10
2019-05-16T22:56:41.631Z,15.10
2019-05-16T22:59:09.842Z,15.10
2019-05-16T23:01:38.296Z,15.00
2019-05-16T23:04:07.281Z,15.00
2019-05-16T23:06:36.328Z,14.80
2019-05-16T23:09:06.956Z,14.60
2019-05-16T23:11:36.336Z,14.80
2019-05-16T23:14:06.310Z,14.50
2019-05-16T23:16:37.188Z,14.60
2019-05-16T23:19:06.639Z,14.60
2019-05-16T23:21:36.766Z,14.70
2019-05-16T23:24:06.664Z,14.50
2019-05-16T23:26:36.350Z,14.50
2019-05-16T23:29:04.738Z,14.50
2019-05-16T23:31:33.170Z,14.40
2019-05-16T23:34:01.434Z,14.30
2019-05-16T23:36:29.720Z,13.90
2019-05-16T23:38:57.924Z,13.70
2019-05-16T23:41:27.344Z,13.90
2019-05-16T23:43:56.667Z,13.90
2019-05-16T23:46:25.108Z,13.90
2019-05-16T23:48:53.333Z,13.90
2019-05-16T23:51:21.583Z,14.00
2019-05-16T23:53:49.787Z,13.90
2019-05-16T23:56:17.856Z,13.80
2019-05-16T23:58:47.673Z,13.70
